sensor_id;sensor_type;location;lat;lon;timestamp;P1;durP1;ratioP1;P2;durP2;ratioP2
60430;SDS011;46285;45.122;20.726;2023-09-07T00:08:45;11.25;;;8.27;;
60430;SDS011;46285;45.122;20.726;2023-09-07T00:18:46;12.07;;;9.00;;
60430;SDS011;46285;45.122;20.726;2023-09-07T00:28:47;13.10;;;8.80;;
60430;SDS011;46285;45.122;20.726;2023-09-07T00:38:49;13.10;;;8.45;;
60430;SDS011;46285;45.122;20.726;2023-09-07T00:48:50;9.27;;;7.05;;
60430;SDS011;46285;45.122;20.726;2023-09-07T00:58:52;10.30;;;6.75;;
60430;SDS011;46285;45.122;20.726;2023-09-07T01:08:54;11.65;;;7.82;;
60430;SDS011;46285;45.122;20.726;2023-09-07T01:18:56;12.23;;;7.65;;
60430;SDS011;46285;45.122;20.726;2023-09-07T01:28:57;9.05;;;5.70;;
60430;SDS011;46285;45.122;20.726;2023-09-07T01:38:58;10.75;;;7.43;;
60430;SDS011;46285;45.122;20.726;2023-09-07T01:48:59;11.07;;;6.63;;
60430;SDS011;46285;45.122;20.726;2023-09-07T01:59:01;8.60;;;6.65;;
60430;SDS011;46285;45.122;20.726;2023-09-07T02:09:02;10.65;;;6.32;;
60430;SDS011;46285;45.122;20.726;2023-09-07T02:19:04;9.68;;;5.97;;
60430;SDS011;46285;45.122;20.726;2023-09-07T02:29:05;14.48;;;7.85;;
60430;SDS011;46285;45.122;20.726;2023-09-07T02:39:07;12.55;;;6.78;;
60430;SDS011;46285;45.122;20.726;2023-09-07T02:49:09;10.15;;;6.80;;
60430;SDS011;46285;45.122;20.726;2023-09-07T02:59:10;10.73;;;7.05;;
60430;SDS011;46285;45.122;20.726;2023-09-07T03:09:12;10.02;;;6.72;;
60430;SDS011;46285;45.122;20.726;2023-09-07T03:19:13;10.63;;;7.15;;
60430;SDS011;46285;45.122;20.726;2023-09-07T03:29:15;10.20;;;6.57;;
60430;SDS011;46285;45.122;20.726;2023-09-07T03:39:16;9.00;;;6.35;;
60430;SDS011;46285;45.122;20.726;2023-09-07T03:49:18;11.23;;;7.07;;
60430;SDS011;46285;45.122;20.726;2023-09-07T03:59:20;10.98;;;6.38;;
60430;SDS011;46285;45.122;20.726;2023-09-07T04:09:21;10.05;;;7.32;;
60430;SDS011;46285;45.122;20.726;2023-09-07T04:19:23;12.43;;;7.72;;
60430;SDS011;46285;45.122;20.726;2023-09-07T04:29:24;11.57;;;7.38;;
60430;SDS011;46285;45.122;20.726;2023-09-07T04:39:25;15.77;;;7.40;;
60430;SDS011;46285;45.122;20.726;2023-09-07T04:49:27;9.82;;;6.65;;
60430;SDS011;46285;45.122;20.726;2023-09-07T04:59:28;9.52;;;6.10;;
60430;SDS011;46285;45.122;20.726;2023-09-07T05:09:30;11.82;;;6.30;;
60430;SDS011;46285;45.122;20.726;2023-09-07T05:19:32;9.38;;;5.97;;
60430;SDS011;46285;45.122;20.726;2023-09-07T05:29:33;12.95;;;6.20;;
60430;SDS011;46285;45.122;20.726;2023-09-07T05:39:35;12.50;;;8.07;;
60430;SDS011;46285;45.122;20.726;2023-09-07T05:49:36;13.27;;;9.20;;
60430;SDS011;46285;45.122;20.726;2023-09-07T05:59:38;14.80;;;8.38;;
60430;SDS011;46285;45.122;20.726;2023-09-07T06:09:39;13.30;;;6.53;;
60430;SDS011;46285;45.122;20.726;2023-09-07T06:19:40;10.43;;;4.05;;
60430;SDS011;46285;45.122;20.726;2023-09-07T06:29:42;7.35;;;3.60;;
60430;SDS011;46285;45.122;20.726;2023-09-07T06:39:44;10.32;;;3.92;;
60430;SDS011;46285;45.122;20.726;2023-09-07T06:49:45;12.17;;;3.97;;
60430;SDS011;46285;45.122;20.726;2023-09-07T06:59:47;12.88;;;3.92;;
60430;SDS011;46285;45.122;20.726;2023-09-07T07:09:48;10.90;;;3.83;;
60430;SDS011;46285;45.122;20.726;2023-09-07T07:19:50;8.15;;;3.60;;
60430;SDS011;46285;45.122;20.726;2023-09-07T07:29:51;7.95;;;3.40;;
60430;SDS011;46285;45.122;20.726;2023-09-07T07:39:53;9.02;;;3.40;;
60430;SDS011;46285;45.122;20.726;2023-09-07T07:49:54;8.63;;;3.63;;
60430;SDS011;46285;45.122;20.726;2023-09-07T07:59:55;7.80;;;3.83;;
60430;SDS011;46285;45.122;20.726;2023-09-07T08:09:58;9.13;;;3.42;;
60430;SDS011;46285;45.122;20.726;2023-09-07T08:20:01;9.02;;;4.13;;
60430;SDS011;46285;45.122;20.726;2023-09-07T08:30:03;10.23;;;3.23;;
60430;SDS011;46285;45.122;20.726;2023-09-07T08:40:08;9.02;;;4.10;;
60430;SDS011;46285;45.122;20.726;2023-09-07T08:50:10;11.13;;;4.55;;
60430;SDS011;46285;45.122;20.726;2023-09-07T09:00:11;10.67;;;3.50;;
60430;SDS011;46285;45.122;20.726;2023-09-07T09:10:14;9.50;;;3.87;;
60430;SDS011;46285;45.122;20.726;2023-09-07T09:20:24;8.18;;;3.85;;
60430;SDS011;46285;45.122;20.726;2023-09-07T09:30:38;8.65;;;3.85;;
60430;SDS011;46285;45.122;20.726;2023-09-07T09:40:39;11.20;;;4.07;;
60430;SDS011;46285;45.122;20.726;2023-09-07T09:50:40;9.73;;;3.60;;
60430;SDS011;46285;45.122;20.726;2023-09-07T10:00:46;7.95;;;3.67;;
60430;SDS011;46285;45.122;20.726;2023-09-07T10:31:13;8.15;;;2.90;;
60430;SDS011;46285;45.122;20.726;2023-09-07T10:51:15;6.82;;;3.55;;
60430;SDS011;46285;45.122;20.726;2023-09-07T11:01:17;6.63;;;3.13;;
60430;SDS011;46285;45.122;20.726;2023-09-07T11:11:20;7.43;;;3.45;;
60430;SDS011;46285;45.122;20.726;2023-09-07T11:21:22;8.60;;;3.63;;
60430;SDS011;46285;45.122;20.726;2023-09-07T11:31:23;6.25;;;2.85;;
60430;SDS011;46285;45.122;20.726;2023-09-07T11:41:25;6.35;;;3.63;;
60430;SDS011;46285;45.122;20.726;2023-09-07T11:51:26;8.30;;;3.75;;
60430;SDS011;46285;45.122;20.726;2023-09-07T12:01:28;7.28;;;3.30;;
60430;SDS011;46285;45.122;20.726;2023-09-07T12:11:29;9.40;;;3.50;;
60430;SDS011;46285;45.122;20.726;2023-09-07T12:21:30;7.00;;;3.20;;
60430;SDS011;46285;45.122;20.726;2023-09-07T12:31:31;6.82;;;3.53;;
60430;SDS011;46285;45.122;20.726;2023-09-07T12:41:32;9.18;;;3.53;;
60430;SDS011;46285;45.122;20.726;2023-09-07T12:51:34;6.28;;;3.38;;
60430;SDS011;46285;45.122;20.726;2023-09-07T13:01:35;9.15;;;3.35;;
60430;SDS011;46285;45.122;20.726;2023-09-07T13:11:36;7.97;;;3.05;;
60430;SDS011;46285;45.122;20.726;2023-09-07T13:21:37;8.27;;;3.38;;
60430;SDS011;46285;45.122;20.726;2023-09-07T13:31:38;6.97;;;3.27;;
60430;SDS011;46285;45.122;20.726;2023-09-07T13:41:40;9.05;;;3.70;;
60430;SDS011;46285;45.122;20.726;2023-09-07T13:51:41;9.65;;;3.17;;
60430;SDS011;46285;45.122;20.726;2023-09-07T14:01:42;6.88;;;3.40;;
60430;SDS011;46285;45.122;20.726;2023-09-07T14:11:43;6.50;;;3.47;;
60430;SDS011;46285;45.122;20.726;2023-09-07T14:21:44;7.78;;;3.47;;
60430;SDS011;46285;45.122;20.726;2023-09-07T14:31:47;7.68;;;3.03;;
60430;SDS011;46285;45.122;20.726;2023-09-07T14:41:48;6.13;;;3.15;;
60430;SDS011;46285;45.122;20.726;2023-09-07T14:51:49;5.85;;;2.88;;
60430;SDS011;46285;45.122;20.726;2023-09-07T15:01:50;6.45;;;2.97;;
60430;SDS011;46285;45.122;20.726;2023-09-07T15:11:54;9.93;;;4.43;;
60430;SDS011;46285;45.122;20.726;2023-09-07T15:21:56;7.93;;;3.13;;
60430;SDS011;46285;45.122;20.726;2023-09-07T15:31:57;10.02;;;3.67;;
60430;SDS011;46285;45.122;20.726;2023-09-07T15:41:58;8.13;;;3.50;;
60430;SDS011;46285;45.122;20.726;2023-09-07T15:51:59;6.07;;;3.10;;
60430;SDS011;46285;45.122;20.726;2023-09-07T16:02:00;9.15;;;3.83;;
60430;SDS011;46285;45.122;20.726;2023-09-07T16:12:01;8.32;;;3.67;;
60430;SDS011;46285;45.122;20.726;2023-09-07T16:22:03;7.85;;;4.05;;
60430;SDS011;46285;45.122;20.726;2023-09-07T16:32:04;8.45;;;4.13;;
60430;SDS011;46285;45.122;20.726;2023-09-07T16:42:05;8.60;;;3.70;;
60430;SDS011;46285;45.122;20.726;2023-09-07T16:52:06;10.20;;;5.38;;
60430;SDS011;46285;45.122;20.726;2023-09-07T17:02:08;23.05;;;5.38;;
60430;SDS011;46285;45.122;20.726;2023-09-07T17:12:09;21.98;;;5.50;;
60430;SDS011;46285;45.122;20.726;2023-09-07T17:22:10;18.67;;;6.03;;
60430;SDS011;46285;45.122;20.726;2023-09-07T17:32:19;27.30;;;7.25;;
60430;SDS011;46285;45.122;20.726;2023-09-07T17:42:25;21.85;;;10.40;;
60430;SDS011;46285;45.122;20.726;2023-09-07T17:52:26;55.05;;;12.63;;
60430;SDS011;46285;45.122;20.726;2023-09-07T18:02:28;43.88;;;10.63;;
60430;SDS011;46285;45.122;20.726;2023-09-07T18:12:29;45.70;;;11.15;;
60430;SDS011;46285;45.122;20.726;2023-09-07T18:22:30;31.20;;;8.38;;
60430;SDS011;46285;45.122;20.726;2023-09-07T18:32:31;51.70;;;26.35;;
60430;SDS011;46285;45.122;20.726;2023-09-07T18:42:33;21.75;;;8.35;;
60430;SDS011;46285;45.122;20.726;2023-09-07T18:52:35;12.15;;;5.97;;
60430;SDS011;46285;45.122;20.726;2023-09-07T19:02:36;14.27;;;6.78;;
60430;SDS011;46285;45.122;20.726;2023-09-07T19:12:37;13.75;;;5.93;;
60430;SDS011;46285;45.122;20.726;2023-09-07T19:22:38;16.55;;;5.53;;
60430;SDS011;46285;45.122;20.726;2023-09-07T19:32:40;12.10;;;6.18;;
60430;SDS011;46285;45.122;20.726;2023-09-07T19:42:41;22.95;;;8.43;;
60430;SDS011;46285;45.122;20.726;2023-09-07T19:52:42;20.10;;;7.55;;
60430;SDS011;46285;45.122;20.726;2023-09-07T20:02:43;17.55;;;7.68;;
60430;SDS011;46285;45.122;20.726;2023-09-07T20:12:45;20.15;;;7.57;;
60430;SDS011;46285;45.122;20.726;2023-09-07T20:22:47;19.65;;;9.68;;
60430;SDS011;46285;45.122;20.726;2023-09-07T20:32:48;23.27;;;9.68;;
60430;SDS011;46285;45.122;20.726;2023-09-07T20:42:49;19.15;;;8.90;;
60430;SDS011;46285;45.122;20.726;2023-09-07T20:52:50;18.65;;;8.18;;
60430;SDS011;46285;45.122;20.726;2023-09-07T21:02:52;22.17;;;9.07;;
60430;SDS011;46285;45.122;20.726;2023-09-07T21:12:53;16.33;;;7.78;;
60430;SDS011;46285;45.122;20.726;2023-09-07T21:22:54;19.70;;;8.50;;
60430;SDS011;46285;45.122;20.726;2023-09-07T21:32:56;17.55;;;8.05;;
60430;SDS011;46285;45.122;20.726;2023-09-07T21:42:57;11.23;;;8.48;;
60430;SDS011;46285;45.122;20.726;2023-09-07T21:52:58;18.17;;;9.13;;
60430;SDS011;46285;45.122;20.726;2023-09-07T22:03:00;12.65;;;8.30;;
60430;SDS011;46285;45.122;20.726;2023-09-07T22:13:01;15.52;;;8.52;;
60430;SDS011;46285;45.122;20.726;2023-09-07T22:23:02;13.13;;;8.88;;
60430;SDS011;46285;45.122;20.726;2023-09-07T22:33:03;18.40;;;10.32;;
60430;SDS011;46285;45.122;20.726;2023-09-07T22:43:04;19.08;;;9.10;;
60430;SDS011;46285;45.122;20.726;2023-09-07T22:53:06;13.38;;;9.60;;
60430;SDS011;46285;45.122;20.726;2023-09-07T23:03:08;11.45;;;7.35;;
60430;SDS011;46285;45.122;20.726;2023-09-07T23:13:09;11.00;;;7.60;;
60430;SDS011;46285;45.122;20.726;2023-09-07T23:23:11;10.43;;;7.35;;
60430;SDS011;46285;45.122;20.726;2023-09-07T23:33:12;18.42;;;11.98;;
60430;SDS011;46285;45.122;20.726;2023-09-07T23:43:13;29.92;;;18.92;;
60430;SDS011;46285;45.122;20.726;2023-09-07T23:53:14;31.58;;;18.60;;
